sensor_id;sensor_type;location;lat;lon;timestamp;P1;durP1;ratioP1;P2;durP2;ratioP2
42742;SDS011;28397;44.552;-0.848;2023-12-20T00:00:25;3.25;;;1.30;;
42742;SDS011;28397;44.552;-0.848;2023-12-20T00:02:51;3.55;;;1.48;;
42742;SDS011;28397;44.552;-0.848;2023-12-20T00:05:17;3.83;;;1.67;;
42742;SDS011;28397;44.552;-0.848;2023-12-20T00:07:42;3.33;;;1.60;;
42742;SDS011;28397;44.552;-0.848;2023-12-20T00:10:08;3.97;;;1.60;;
42742;SDS011;28397;44.552;-0.848;2023-12-20T00:12:34;3.15;;;1.40;;
42742;SDS011;28397;44.552;-0.848;2023-12-20T00:15:00;2.50;;;1.42;;
42742;SDS011;28397;44.552;-0.848;2023-12-20T00:17:25;6.57;;;1.60;;
42742;SDS011;28397;44.552;-0.848;2023-12-20T00:19:51;3.75;;;1.60;;
42742;SDS011;28397;44.552;-0.848;2023-12-20T00:22:17;6.88;;;2.15;;
42742;SDS011;28397;44.552;-0.848;2023-12-20T00:24:42;9.82;;;2.30;;
42742;SDS011;28397;44.552;-0.848;2023-12-20T00:27:08;11.27;;;2.33;;
42742;SDS011;28397;44.552;-0.848;2023-12-20T00:29:33;11.02;;;2.60;;
42742;SDS011;28397;44.552;-0.848;2023-12-20T00:31:59;13.07;;;2.83;;
42742;SDS011;28397;44.552;-0.848;2023-12-20T00:34:25;14.23;;;2.88;;
42742;SDS011;28397;44.552;-0.848;2023-12-20T00:36:50;16.67;;;3.08;;
42742;SDS011;28397;44.552;-0.848;2023-12-20T00:39:16;15.80;;;3.10;;
42742;SDS011;28397;44.552;-0.848;2023-12-20T00:41:42;16.58;;;3.03;;
42742;SDS011;28397;44.552;-0.848;2023-12-20T00:44:07;16.88;;;3.63;;
42742;SDS011;28397;44.552;-0.848;2023-12-20T00:46:33;17.85;;;3.75;;
42742;SDS011;28397;44.552;-0.848;2023-12-20T00:48:59;14.30;;;3.00;;
42742;SDS011;28397;44.552;-0.848;2023-12-20T00:51:24;17.42;;;3.97;;
42742;SDS011;28397;44.552;-0.848;2023-12-20T00:53:50;15.32;;;3.20;;
42742;SDS011;28397;44.552;-0.848;2023-12-20T00:56:19;18.83;;;3.72;;
42742;SDS011;28397;44.552;-0.848;2023-12-20T00:58:45;19.70;;;3.70;;
42742;SDS011;28397;44.552;-0.848;2023-12-20T01:01:11;16.33;;;3.30;;
42742;SDS011;28397;44.552;-0.848;2023-12-20T01:03:37;19.35;;;3.50;;
42742;SDS011;28397;44.552;-0.848;2023-12-20T01:06:03;18.65;;;3.80;;
42742;SDS011;28397;44.552;-0.848;2023-12-20T01:08:30;20.92;;;4.28;;
42742;SDS011;28397;44.552;-0.848;2023-12-20T01:10:55;17.35;;;3.63;;
42742;SDS011;28397;44.552;-0.848;2023-12-20T01:13:21;20.73;;;4.05;;
42742;SDS011;28397;44.552;-0.848;2023-12-20T01:15:47;21.95;;;4.55;;
42742;SDS011;28397;44.552;-0.848;2023-12-20T01:18:13;22.25;;;4.30;;
42742;SDS011;28397;44.552;-0.848;2023-12-20T01:20:40;16.33;;;4.03;;
42742;SDS011;28397;44.552;-0.848;2023-12-20T01:23:05;20.83;;;4.35;;
42742;SDS011;28397;44.552;-0.848;2023-12-20T01:25:31;19.48;;;4.35;;
42742;SDS011;28397;44.552;-0.848;2023-12-20T01:27:57;19.02;;;3.97;;
42742;SDS011;28397;44.552;-0.848;2023-12-20T01:30:23;17.67;;;3.88;;
42742;SDS011;28397;44.552;-0.848;2023-12-20T01:32:49;18.60;;;4.30;;
42742;SDS011;28397;44.552;-0.848;2023-12-20T01:35:15;17.40;;;4.15;;
42742;SDS011;28397;44.552;-0.848;2023-12-20T01:37:40;18.63;;;3.92;;
42742;SDS011;28397;44.552;-0.848;2023-12-20T01:40:06;16.40;;;3.45;;
42742;SDS011;28397;44.552;-0.848;2023-12-20T01:42:33;14.40;;;3.25;;
42742;SDS011;28397;44.552;-0.848;2023-12-20T01:44:58;18.25;;;3.67;;
42742;SDS011;28397;44.552;-0.848;2023-12-20T01:47:24;18.42;;;4.10;;
42742;SDS011;28397;44.552;-0.848;2023-12-20T01:49:52;16.80;;;3.70;;
42742;SDS011;28397;44.552;-0.848;2023-12-20T01:52:18;16.92;;;3.45;;
42742;SDS011;28397;44.552;-0.848;2023-12-20T01:54:44;10.98;;;3.58;;
42742;SDS011;28397;44.552;-0.848;2023-12-20T01:57:10;12.90;;;3.35;;
42742;SDS011;28397;44.552;-0.848;2023-12-20T01:59:37;11.88;;;3.13;;
42742;SDS011;28397;44.552;-0.848;2023-12-20T02:02:04;13.13;;;3.20;;
42742;SDS011;28397;44.552;-0.848;2023-12-20T02:04:30;11.18;;;2.83;;
42742;SDS011;28397;44.552;-0.848;2023-12-20T02:06:56;10.52;;;2.67;;
42742;SDS011;28397;44.552;-0.848;2023-12-20T02:09:23;10.60;;;2.67;;
42742;SDS011;28397;44.552;-0.848;2023-12-20T02:11:49;10.02;;;2.78;;
42742;SDS011;28397;44.552;-0.848;2023-12-20T02:14:15;6.88;;;2.72;;
42742;SDS011;28397;44.552;-0.848;2023-12-20T02:16:41;10.15;;;2.88;;
42742;SDS011;28397;44.552;-0.848;2023-12-20T02:19:09;9.85;;;3.10;;
42742;SDS011;28397;44.552;-0.848;2023-12-20T02:21:38;9.70;;;2.70;;
42742;SDS011;28397;44.552;-0.848;2023-12-20T02:24:04;15.27;;;2.75;;
42742;SDS011;28397;44.552;-0.848;2023-12-20T02:26:31;10.80;;;2.95;;
42742;SDS011;28397;44.552;-0.848;2023-12-20T02:28:58;12.68;;;3.13;;
42742;SDS011;28397;44.552;-0.848;2023-12-20T02:31:24;11.93;;;3.35;;
42742;SDS011;28397;44.552;-0.848;2023-12-20T02:33:50;11.48;;;3.03;;
42742;SDS011;28397;44.552;-0.848;2023-12-20T02:36:15;9.10;;;3.00;;
42742;SDS011;28397;44.552;-0.848;2023-12-20T02:38:41;8.85;;;2.45;;
42742;SDS011;28397;44.552;-0.848;2023-12-20T02:41:07;10.40;;;3.17;;
42742;SDS011;28397;44.552;-0.848;2023-12-20T02:43:32;9.95;;;2.80;;
42742;SDS011;28397;44.552;-0.848;2023-12-20T02:45:58;7.90;;;2.47;;
42742;SDS011;28397;44.552;-0.848;2023-12-20T02:48:24;7.32;;;2.28;;
42742;SDS011;28397;44.552;-0.848;2023-12-20T02:50:49;7.30;;;2.30;;
42742;SDS011;28397;44.552;-0.848;2023-12-20T02:53:15;8.70;;;2.25;;
42742;SDS011;28397;44.552;-0.848;2023-12-20T02:55:41;6.53;;;2.50;;
42742;SDS011;28397;44.552;-0.848;2023-12-20T02:58:07;7.00;;;2.50;;
42742;SDS011;28397;44.552;-0.848;2023-12-20T03:00:32;12.98;;;3.22;;
42742;SDS011;28397;44.552;-0.848;2023-12-20T03:02:59;12.02;;;3.53;;
42742;SDS011;28397;44.552;-0.848;2023-12-20T03:05:25;13.05;;;3.20;;
42742;SDS011;28397;44.552;-0.848;2023-12-20T03:07:50;13.05;;;3.72;;
42742;SDS011;28397;44.552;-0.848;2023-12-20T03:10:18;9.93;;;3.30;;
42742;SDS011;28397;44.552;-0.848;2023-12-20T03:12:44;10.00;;;2.78;;
42742;SDS011;28397;44.552;-0.848;2023-12-20T03:15:10;13.02;;;2.80;;
42742;SDS011;28397;44.552;-0.848;2023-12-20T03:17:35;12.05;;;3.08;;
42742;SDS011;28397;44.552;-0.848;2023-12-20T03:20:01;11.00;;;2.95;;
42742;SDS011;28397;44.552;-0.848;2023-12-20T03:22:27;11.20;;;3.17;;
42742;SDS011;28397;44.552;-0.848;2023-12-20T03:24:53;8.43;;;2.40;;
42742;SDS011;28397;44.552;-0.848;2023-12-20T03:27:18;10.48;;;2.70;;
42742;SDS011;28397;44.552;-0.848;2023-12-20T03:29:44;9.45;;;2.90;;
42742;SDS011;28397;44.552;-0.848;2023-12-20T03:32:10;9.48;;;2.47;;
42742;SDS011;28397;44.552;-0.848;2023-12-20T03:34:35;10.15;;;2.55;;
42742;SDS011;28397;44.552;-0.848;2023-12-20T03:37:01;11.52;;;2.75;;
42742;SDS011;28397;44.552;-0.848;2023-12-20T03:39:26;12.00;;;2.97;;
42742;SDS011;28397;44.552;-0.848;2023-12-20T03:41:52;10.45;;;2.95;;
42742;SDS011;28397;44.552;-0.848;2023-12-20T03:44:18;10.43;;;2.83;;
42742;SDS011;28397;44.552;-0.848;2023-12-20T03:46:43;8.45;;;2.50;;
42742;SDS011;28397;44.552;-0.848;2023-12-20T03:49:10;9.27;;;2.60;;
42742;SDS011;28397;44.552;-0.848;2023-12-20T03:51:36;7.90;;;2.45;;
42742;SDS011;28397;44.552;-0.848;2023-12-20T03:54:02;11.45;;;2.78;;
42742;SDS011;28397;44.552;-0.848;2023-12-20T03:56:28;9.82;;;2.50;;
42742;SDS011;28397;44.552;-0.848;2023-12-20T03:58:53;8.93;;;2.42;;
42742;SDS011;28397;44.552;-0.848;2023-12-20T04:01:19;9.25;;;2.33;;
42742;SDS011;28397;44.552;-0.848;2023-12-20T04:03:45;11.35;;;2.53;;
42742;SDS011;28397;44.552;-0.848;2023-12-20T04:06:15;12.15;;;3.17;;
42742;SDS011;28397;44.552;-0.848;2023-12-20T04:08:42;11.40;;;3.15;;
42742;SDS011;28397;44.552;-0.848;2023-12-20T04:11:08;7.90;;;2.35;;
42742;SDS011;28397;44.552;-0.848;2023-12-20T04:13:33;8.90;;;2.63;;
42742;SDS011;28397;44.552;-0.848;2023-12-20T04:15:59;13.65;;;2.90;;
42742;SDS011;28397;44.552;-0.848;2023-12-20T04:18:25;11.80;;;2.70;;
42742;SDS011;28397;44.552;-0.848;2023-12-20T04:20:50;9.63;;;2.63;;
42742;SDS011;28397;44.552;-0.848;2023-12-20T04:23:16;12.38;;;3.20;;
42742;SDS011;28397;44.552;-0.848;2023-12-20T04:25:42;9.07;;;2.58;;
42742;SDS011;28397;44.552;-0.848;2023-12-20T04:28:08;13.50;;;3.30;;
42742;SDS011;28397;44.552;-0.848;2023-12-20T04:30:34;10.20;;;2.42;;
42742;SDS011;28397;44.552;-0.848;2023-12-20T04:33:00;10.38;;;2.70;;
42742;SDS011;28397;44.552;-0.848;2023-12-20T04:35:26;9.77;;;2.75;;
42742;SDS011;28397;44.552;-0.848;2023-12-20T04:37:51;7.43;;;2.60;;
42742;SDS011;28397;44.552;-0.848;2023-12-20T04:40:17;8.95;;;2.75;;
42742;SDS011;28397;44.552;-0.848;2023-12-20T04:42:42;11.27;;;2.83;;
42742;SDS011;28397;44.552;-0.848;2023-12-20T04:45:08;8.45;;;2.65;;
42742;SDS011;28397;44.552;-0.848;2023-12-20T04:47:34;10.73;;;3.08;;
42742;SDS011;28397;44.552;-0.848;2023-12-20T04:50:00;9.10;;;2.78;;
42742;SDS011;28397;44.552;-0.848;2023-12-20T04:52:25;8.65;;;2.60;;
42742;SDS011;28397;44.552;-0.848;2023-12-20T04:54:51;13.13;;;3.20;;
42742;SDS011;28397;44.552;-0.848;2023-12-20T04:57:17;14.23;;;3.22;;
42742;SDS011;28397;44.552;-0.848;2023-12-20T04:59:42;12.25;;;3.13;;
42742;SDS011;28397;44.552;-0.848;2023-12-20T05:02:08;12.15;;;2.75;;
42742;SDS011;28397;44.552;-0.848;2023-12-20T05:04:34;16.83;;;3.63;;
42742;SDS011;28397;44.552;-0.848;2023-12-20T05:07:00;12.32;;;2.97;;
42742;SDS011;28397;44.552;-0.848;2023-12-20T05:09:25;10.77;;;2.80;;
42742;SDS011;28397;44.552;-0.848;2023-12-20T05:11:51;14.60;;;3.20;;
42742;SDS011;28397;44.552;-0.848;2023-12-20T05:14:17;12.23;;;3.08;;
42742;SDS011;28397;44.552;-0.848;2023-12-20T05:16:42;11.75;;;3.33;;
42742;SDS011;28397;44.552;-0.848;2023-12-20T05:19:08;13.25;;;3.13;;
42742;SDS011;28397;44.552;-0.848;2023-12-20T05:21:34;14.60;;;3.58;;
42742;SDS011;28397;44.552;-0.848;2023-12-20T05:23:59;14.07;;;3.20;;
42742;SDS011;28397;44.552;-0.848;2023-12-20T05:26:25;14.38;;;4.00;;
42742;SDS011;28397;44.552;-0.848;2023-12-20T05:28:51;12.48;;;3.17;;
42742;SDS011;28397;44.552;-0.848;2023-12-20T05:31:17;15.10;;;3.67;;
42742;SDS011;28397;44.552;-0.848;2023-12-20T05:33:43;13.63;;;3.90;;
42742;SDS011;28397;44.552;-0.848;2023-12-20T05:36:08;14.98;;;4.15;;
42742;SDS011;28397;44.552;-0.848;2023-12-20T05:38:36;18.70;;;4.22;;
42742;SDS011;28397;44.552;-0.848;2023-12-20T05:41:02;15.38;;;4.38;;
42742;SDS011;28397;44.552;-0.848;2023-12-20T05:43:28;11.95;;;3.67;;
42742;SDS011;28397;44.552;-0.848;2023-12-20T05:45:54;16.00;;;4.30;;
42742;SDS011;28397;44.552;-0.848;2023-12-20T05:48:20;14.90;;;3.40;;
42742;SDS011;28397;44.552;-0.848;2023-12-20T05:50:45;12.70;;;3.88;;
42742;SDS011;28397;44.552;-0.848;2023-12-20T05:53:11;15.88;;;4.07;;
42742;SDS011;28397;44.552;-0.848;2023-12-20T05:55:37;12.82;;;3.63;;
42742;SDS011;28397;44.552;-0.848;2023-12-20T05:58:02;15.48;;;3.75;;
42742;SDS011;28397;44.552;-0.848;2023-12-20T06:00:28;15.55;;;3.83;;
42742;SDS011;28397;44.552;-0.848;2023-12-20T06:02:54;13.85;;;3.70;;
42742;SDS011;28397;44.552;-0.848;2023-12-20T06:05:19;14.40;;;3.53;;
42742;SDS011;28397;44.552;-0.848;2023-12-20T06:07:45;16.63;;;3.90;;
42742;SDS011;28397;44.552;-0.848;2023-12-20T06:10:13;14.88;;;3.85;;
42742;SDS011;28397;44.552;-0.848;2023-12-20T06:12:39;14.52;;;3.65;;
42742;SDS011;28397;44.552;-0.848;2023-12-20T06:15:05;12.20;;;3.65;;
42742;SDS011;28397;44.552;-0.848;2023-12-20T06:17:31;14.73;;;3.90;;
42742;SDS011;28397;44.552;-0.848;2023-12-20T06:19:57;13.45;;;3.42;;
42742;SDS011;28397;44.552;-0.848;2023-12-20T06:22:23;14.23;;;3.60;;
42742;SDS011;28397;44.552;-0.848;2023-12-20T06:24:48;12.50;;;3.20;;
42742;SDS011;28397;44.552;-0.848;2023-12-20T06:27:14;16.23;;;3.78;;
42742;SDS011;28397;44.552;-0.848;2023-12-20T06:29:40;14.43;;;3.22;;
42742;SDS011;28397;44.552;-0.848;2023-12-20T06:32:06;17.02;;;3.55;;
42742;SDS011;28397;44.552;-0.848;2023-12-20T06:34:32;11.52;;;2.72;;
42742;SDS011;28397;44.552;-0.848;2023-12-20T06:36:57;10.70;;;3.10;;
42742;SDS011;28397;44.552;-0.848;2023-12-20T06:39:23;12.15;;;2.80;;
42742;SDS011;28397;44.552;-0.848;2023-12-20T06:41:49;11.05;;;3.30;;
42742;SDS011;28397;44.552;-0.848;2023-12-20T06:44:14;14.68;;;3.67;;
42742;SDS011;28397;44.552;-0.848;2023-12-20T06:46:40;13.65;;;3.17;;
42742;SDS011;28397;44.552;-0.848;2023-12-20T06:49:05;12.20;;;3.20;;
42742;SDS011;28397;44.552;-0.848;2023-12-20T06:51:31;12.02;;;3.22;;
42742;SDS011;28397;44.552;-0.848;2023-12-20T06:53:57;9.18;;;2.50;;
42742;SDS011;28397;44.552;-0.848;2023-12-20T06:56:22;12.77;;;3.15;;
42742;SDS011;28397;44.552;-0.848;2023-12-20T06:58:48;10.10;;;3.05;;
42742;SDS011;28397;44.552;-0.848;2023-12-20T07:01:14;15.73;;;3.35;;
42742;SDS011;28397;44.552;-0.848;2023-12-20T07:03:40;9.52;;;2.95;;
42742;SDS011;28397;44.552;-0.848;2023-12-20T07:06:07;9.55;;;2.80;;
42742;SDS011;28397;44.552;-0.848;2023-12-20T07:08:33;15.32;;;3.00;;
42742;SDS011;28397;44.552;-0.848;2023-12-20T07:10:58;11.45;;;3.10;;
42742;SDS011;28397;44.552;-0.848;2023-12-20T07:13:24;13.43;;;3.17;;
42742;SDS011;28397;44.552;-0.848;2023-12-20T07:15:50;13.95;;;3.03;;
42742;SDS011;28397;44.552;-0.848;2023-12-20T07:18:16;12.85;;;3.33;;
42742;SDS011;28397;44.552;-0.848;2023-12-20T07:20:42;9.93;;;2.83;;
42742;SDS011;28397;44.552;-0.848;2023-12-20T07:23:08;15.50;;;3.42;;
42742;SDS011;28397;44.552;-0.848;2023-12-20T07:25:33;14.82;;;3.90;;
42742;SDS011;28397;44.552;-0.848;2023-12-20T07:27:59;12.60;;;3.28;;
42742;SDS011;28397;44.552;-0.848;2023-12-20T07:30:25;10.05;;;2.70;;
42742;SDS011;28397;44.552;-0.848;2023-12-20T07:32:51;12.05;;;3.00;;
42742;SDS011;28397;44.552;-0.848;2023-12-20T07:35:17;15.82;;;3.60;;
42742;SDS011;28397;44.552;-0.848;2023-12-20T07:37:43;11.25;;;2.97;;
42742;SDS011;28397;44.552;-0.848;2023-12-20T07:40:09;12.65;;;3.58;;
42742;SDS011;28397;44.552;-0.848;2023-12-20T07:42:35;12.10;;;3.17;;
42742;SDS011;28397;44.552;-0.848;2023-12-20T07:45:00;15.98;;;4.15;;
42742;SDS011;28397;44.552;-0.848;2023-12-20T07:47:26;12.15;;;3.25;;
42742;SDS011;28397;44.552;-0.848;2023-12-20T07:49:52;13.18;;;2.97;;
42742;SDS011;28397;44.552;-0.848;2023-12-20T07:52:18;15.95;;;3.50;;
42742;SDS011;28397;44.552;-0.848;2023-12-20T07:54:44;11.80;;;3.42;;
42742;SDS011;28397;44.552;-0.848;2023-12-20T07:57:11;15.43;;;3.78;;
42742;SDS011;28397;44.552;-0.848;2023-12-20T07:59:37;13.70;;;3.58;;
42742;SDS011;28397;44.552;-0.848;2023-12-20T08:02:03;12.82;;;3.40;;
42742;SDS011;28397;44.552;-0.848;2023-12-20T08:04:28;14.73;;;3.50;;
42742;SDS011;28397;44.552;-0.848;2023-12-20T08:06:54;14.38;;;3.20;;
42742;SDS011;28397;44.552;-0.848;2023-12-20T08:09:20;12.68;;;2.97;;
42742;SDS011;28397;44.552;-0.848;2023-12-20T08:11:46;19.35;;;3.60;;
42742;SDS011;28397;44.552;-0.848;2023-12-20T08:14:12;15.43;;;3.60;;
42742;SDS011;28397;44.552;-0.848;2023-12-20T08:16:38;17.77;;;3.90;;
42742;SDS011;28397;44.552;-0.848;2023-12-20T08:19:04;15.05;;;3.15;;
42742;SDS011;28397;44.552;-0.848;2023-12-20T08:21:30;13.32;;;3.50;;
42742;SDS011;28397;44.552;-0.848;2023-12-20T08:23:55;13.98;;;3.30;;
42742;SDS011;28397;44.552;-0.848;2023-12-20T08:26:21;12.48;;;3.45;;
42742;SDS011;28397;44.552;-0.848;2023-12-20T08:28:48;13.27;;;3.40;;
42742;SDS011;28397;44.552;-0.848;2023-12-20T08:31:14;17.08;;;3.55;;
42742;SDS011;28397;44.552;-0.848;2023-12-20T08:33:41;12.18;;;3.28;;
42742;SDS011;28397;44.552;-0.848;2023-12-20T08:36:11;13.15;;;3.05;;
42742;SDS011;28397;44.552;-0.848;2023-12-20T08:38:37;15.18;;;4.00;;
42742;SDS011;28397;44.552;-0.848;2023-12-20T08:41:03;11.18;;;3.60;;
42742;SDS011;28397;44.552;-0.848;2023-12-20T08:43:39;18.40;;;4.45;;
42742;SDS011;28397;44.552;-0.848;2023-12-20T08:46:07;15.00;;;3.42;;
42742;SDS011;28397;44.552;-0.848;2023-12-20T08:48:36;16.20;;;4.22;;
42742;SDS011;28397;44.552;-0.848;2023-12-20T08:51:03;16.65;;;4.97;;
42742;SDS011;28397;44.552;-0.848;2023-12-20T08:53:29;15.15;;;3.72;;
42742;SDS011;28397;44.552;-0.848;2023-12-20T08:55:55;17.42;;;4.15;;
42742;SDS011;28397;44.552;-0.848;2023-12-20T08:58:21;19.50;;;4.50;;
42742;SDS011;28397;44.552;-0.848;2023-12-20T09:00:46;13.65;;;3.47;;
42742;SDS011;28397;44.552;-0.848;2023-12-20T09:03:12;16.05;;;4.28;;
42742;SDS011;28397;44.552;-0.848;2023-12-20T09:05:37;16.80;;;4.03;;
42742;SDS011;28397;44.552;-0.848;2023-12-20T09:08:03;16.10;;;4.18;;
42742;SDS011;28397;44.552;-0.848;2023-12-20T09:10:29;15.70;;;3.85;;
42742;SDS011;28397;44.552;-0.848;2023-12-20T09:12:55;17.23;;;4.20;;
42742;SDS011;28397;44.552;-0.848;2023-12-20T09:15:25;17.05;;;4.18;;
42742;SDS011;28397;44.552;-0.848;2023-12-20T09:17:52;13.85;;;3.95;;
42742;SDS011;28397;44.552;-0.848;2023-12-20T09:20:18;16.23;;;4.05;;
42742;SDS011;28397;44.552;-0.848;2023-12-20T09:22:44;13.65;;;3.78;;
42742;SDS011;28397;44.552;-0.848;2023-12-20T09:25:10;19.00;;;5.10;;
42742;SDS011;28397;44.552;-0.848;2023-12-20T09:27:37;13.07;;;4.32;;
42742;SDS011;28397;44.552;-0.848;2023-12-20T09:30:03;21.33;;;6.57;;
42742;SDS011;28397;44.552;-0.848;2023-12-20T09:32:30;20.30;;;6.22;;
42742;SDS011;28397;44.552;-0.848;2023-12-20T09:34:56;15.40;;;4.50;;
42742;SDS011;28397;44.552;-0.848;2023-12-20T09:37:22;16.15;;;5.35;;
42742;SDS011;28397;44.552;-0.848;2023-12-20T09:39:51;17.25;;;5.78;;
42742;SDS011;28397;44.552;-0.848;2023-12-20T09:42:17;16.77;;;4.82;;
42742;SDS011;28397;44.552;-0.848;2023-12-20T09:44:54;17.52;;;4.90;;
42742;SDS011;28397;44.552;-0.848;2023-12-20T09:47:23;19.05;;;4.47;;
42742;SDS011;28397;44.552;-0.848;2023-12-20T09:49:50;18.25;;;4.47;;
42742;SDS011;28397;44.552;-0.848;2023-12-20T09:52:16;15.98;;;4.45;;
42742;SDS011;28397;44.552;-0.848;2023-12-20T09:54:44;13.88;;;3.83;;
42742;SDS011;28397;44.552;-0.848;2023-12-20T09:57:12;14.45;;;4.10;;
42742;SDS011;28397;44.552;-0.848;2023-12-20T09:59:38;16.05;;;4.30;;
42742;SDS011;28397;44.552;-0.848;2023-12-20T10:02:04;13.75;;;3.83;;
42742;SDS011;28397;44.552;-0.848;2023-12-20T10:04:36;18.58;;;4.43;;
42742;SDS011;28397;44.552;-0.848;2023-12-20T10:07:02;15.10;;;4.28;;
42742;SDS011;28397;44.552;-0.848;2023-12-20T10:09:31;13.85;;;3.88;;
42742;SDS011;28397;44.552;-0.848;2023-12-20T10:11:57;14.68;;;4.43;;
42742;SDS011;28397;44.552;-0.848;2023-12-20T10:14:23;16.70;;;4.28;;
42742;SDS011;28397;44.552;-0.848;2023-12-20T10:16:49;16.25;;;4.15;;
42742;SDS011;28397;44.552;-0.848;2023-12-20T10:19:18;14.57;;;4.03;;
42742;SDS011;28397;44.552;-0.848;2023-12-20T10:21:44;15.80;;;4.40;;
42742;SDS011;28397;44.552;-0.848;2023-12-20T10:24:11;14.50;;;4.38;;
42742;SDS011;28397;44.552;-0.848;2023-12-20T10:26:42;14.13;;;3.97;;
42742;SDS011;28397;44.552;-0.848;2023-12-20T10:29:08;17.95;;;4.15;;
42742;SDS011;28397;44.552;-0.848;2023-12-20T10:31:34;14.00;;;3.60;;
42742;SDS011;28397;44.552;-0.848;2023-12-20T10:34:01;18.52;;;4.32;;
42742;SDS011;28397;44.552;-0.848;2023-12-20T10:36:28;16.88;;;4.00;;
42742;SDS011;28397;44.552;-0.848;2023-12-20T10:38:55;13.52;;;3.83;;
42742;SDS011;28397;44.552;-0.848;2023-12-20T10:43:58;13.43;;;3.67;;
42742;SDS011;28397;44.552;-0.848;2023-12-20T10:46:26;12.65;;;3.40;;
42742;SDS011;28397;44.552;-0.848;2023-12-20T10:48:53;16.40;;;3.78;;
42742;SDS011;28397;44.552;-0.848;2023-12-20T10:51:20;11.52;;;3.38;;
42742;SDS011;28397;44.552;-0.848;2023-12-20T10:53:49;12.00;;;3.20;;
42742;SDS011;28397;44.552;-0.848;2023-12-20T10:56:16;15.82;;;3.70;;
42742;SDS011;28397;44.552;-0.848;2023-12-20T10:58:43;10.20;;;3.30;;
42742;SDS011;28397;44.552;-0.848;2023-12-20T11:01:10;12.40;;;3.80;;
42742;SDS011;28397;44.552;-0.848;2023-12-20T11:03:39;17.05;;;3.97;;
42742;SDS011;28397;44.552;-0.848;2023-12-20T11:06:40;13.50;;;3.47;;
42742;SDS011;28397;44.552;-0.848;2023-12-20T11:09:16;13.43;;;3.72;;
42742;SDS011;28397;44.552;-0.848;2023-12-20T11:14:42;8.90;;;3.28;;
42742;SDS011;28397;44.552;-0.848;2023-12-20T11:17:14;12.10;;;3.80;;
42742;SDS011;28397;44.552;-0.848;2023-12-20T11:22:26;11.57;;;3.38;;
42742;SDS011;28397;44.552;-0.848;2023-12-20T11:24:54;10.52;;;3.72;;
42742;SDS011;28397;44.552;-0.848;2023-12-20T11:27:28;11.40;;;3.00;;
42742;SDS011;28397;44.552;-0.848;2023-12-20T11:29:56;14.48;;;3.42;;
42742;SDS011;28397;44.552;-0.848;2023-12-20T11:34:55;11.75;;;3.85;;
42742;SDS011;28397;44.552;-0.848;2023-12-20T11:37:21;13.25;;;3.60;;
42742;SDS011;28397;44.552;-0.848;2023-12-20T11:39:59;13.90;;;3.85;;
42742;SDS011;28397;44.552;-0.848;2023-12-20T11:42:50;13.80;;;3.25;;
42742;SDS011;28397;44.552;-0.848;2023-12-20T11:45:17;12.40;;;3.00;;
42742;SDS011;28397;44.552;-0.848;2023-12-20T11:47:47;8.00;;;2.47;;
42742;SDS011;28397;44.552;-0.848;2023-12-20T11:50:16;9.82;;;2.80;;
42742;SDS011;28397;44.552;-0.848;2023-12-20T11:52:43;11.40;;;3.10;;
42742;SDS011;28397;44.552;-0.848;2023-12-20T11:55:09;11.55;;;2.85;;
42742;SDS011;28397;44.552;-0.848;2023-12-20T11:57:35;8.40;;;2.13;;
42742;SDS011;28397;44.552;-0.848;2023-12-20T12:00:02;7.82;;;1.98;;
42742;SDS011;28397;44.552;-0.848;2023-12-20T12:02:28;8.23;;;2.00;;
42742;SDS011;28397;44.552;-0.848;2023-12-20T12:04:54;11.00;;;2.17;;
42742;SDS011;28397;44.552;-0.848;2023-12-20T12:07:21;9.63;;;2.60;;
42742;SDS011;28397;44.552;-0.848;2023-12-20T12:09:47;8.93;;;2.10;;
42742;SDS011;28397;44.552;-0.848;2023-12-20T12:12:13;9.68;;;2.33;;
42742;SDS011;28397;44.552;-0.848;2023-12-20T12:14:39;9.80;;;1.75;;
42742;SDS011;28397;44.552;-0.848;2023-12-20T12:17:11;10.35;;;2.58;;
42742;SDS011;28397;44.552;-0.848;2023-12-20T12:19:40;6.72;;;2.38;;
42742;SDS011;28397;44.552;-0.848;2023-12-20T12:22:11;9.32;;;2.35;;
42742;SDS011;28397;44.552;-0.848;2023-12-20T12:24:47;9.75;;;2.30;;
42742;SDS011;28397;44.552;-0.848;2023-12-20T12:27:14;10.52;;;2.70;;
42742;SDS011;28397;44.552;-0.848;2023-12-20T12:29:41;7.75;;;2.20;;
42742;SDS011;28397;44.552;-0.848;2023-12-20T12:32:24;8.25;;;2.10;;
42742;SDS011;28397;44.552;-0.848;2023-12-20T12:34:50;8.43;;;2.50;;
42742;SDS011;28397;44.552;-0.848;2023-12-20T12:37:16;7.40;;;2.40;;
42742;SDS011;28397;44.552;-0.848;2023-12-20T12:39:42;9.45;;;2.78;;
42742;SDS011;28397;44.552;-0.848;2023-12-20T12:42:07;7.68;;;2.40;;
42742;SDS011;28397;44.552;-0.848;2023-12-20T12:44:33;7.45;;;2.25;;
42742;SDS011;28397;44.552;-0.848;2023-12-20T12:46:59;6.72;;;1.95;;
42742;SDS011;28397;44.552;-0.848;2023-12-20T12:49:24;6.88;;;1.92;;
42742;SDS011;28397;44.552;-0.848;2023-12-20T12:51:53;7.53;;;2.28;;
42742;SDS011;28397;44.552;-0.848;2023-12-20T12:54:21;9.93;;;2.38;;
42742;SDS011;28397;44.552;-0.848;2023-12-20T12:56:46;5.47;;;1.92;;
42742;SDS011;28397;44.552;-0.848;2023-12-20T12:59:12;6.68;;;1.92;;
42742;SDS011;28397;44.552;-0.848;2023-12-20T13:01:38;5.72;;;1.73;;
42742;SDS011;28397;44.552;-0.848;2023-12-20T13:04:04;10.55;;;2.05;;
42742;SDS011;28397;44.552;-0.848;2023-12-20T13:06:35;6.55;;;1.80;;
42742;SDS011;28397;44.552;-0.848;2023-12-20T13:09:01;7.97;;;2.08;;
42742;SDS011;28397;44.552;-0.848;2023-12-20T13:11:27;6.95;;;1.90;;
42742;SDS011;28397;44.552;-0.848;2023-12-20T13:13:53;5.68;;;2.03;;
42742;SDS011;28397;44.552;-0.848;2023-12-20T13:16:18;5.60;;;2.20;;
42742;SDS011;28397;44.552;-0.848;2023-12-20T13:18:44;7.07;;;2.10;;
42742;SDS011;28397;44.552;-0.848;2023-12-20T13:21:10;7.20;;;1.92;;
42742;SDS011;28397;44.552;-0.848;2023-12-20T13:23:36;7.10;;;1.70;;
42742;SDS011;28397;44.552;-0.848;2023-12-20T13:26:02;7.18;;;2.28;;
42742;SDS011;28397;44.552;-0.848;2023-12-20T13:28:28;7.43;;;1.85;;
42742;SDS011;28397;44.552;-0.848;2023-12-20T13:30:53;6.63;;;2.20;;
42742;SDS011;28397;44.552;-0.848;2023-12-20T13:33:19;6.20;;;1.83;;
42742;SDS011;28397;44.552;-0.848;2023-12-20T13:35:45;5.82;;;1.60;;
42742;SDS011;28397;44.552;-0.848;2023-12-20T13:38:12;10.73;;;2.20;;
42742;SDS011;28397;44.552;-0.848;2023-12-20T13:40:38;7.13;;;2.10;;
42742;SDS011;28397;44.552;-0.848;2023-12-20T13:43:04;5.60;;;1.55;;
42742;SDS011;28397;44.552;-0.848;2023-12-20T13:45:29;8.30;;;2.13;;
42742;SDS011;28397;44.552;-0.848;2023-12-20T13:47:55;9.18;;;2.10;;
42742;SDS011;28397;44.552;-0.848;2023-12-20T13:50:21;6.78;;;1.83;;
42742;SDS011;28397;44.552;-0.848;2023-12-20T13:52:47;6.28;;;1.85;;
42742;SDS011;28397;44.552;-0.848;2023-12-20T13:55:13;6.85;;;2.00;;
42742;SDS011;28397;44.552;-0.848;2023-12-20T13:57:38;6.32;;;1.70;;
42742;SDS011;28397;44.552;-0.848;2023-12-20T14:00:06;8.93;;;1.95;;
42742;SDS011;28397;44.552;-0.848;2023-12-20T14:02:39;6.97;;;2.08;;
42742;SDS011;28397;44.552;-0.848;2023-12-20T14:05:06;6.00;;;2.22;;
42742;SDS011;28397;44.552;-0.848;2023-12-20T14:07:31;4.80;;;1.58;;
42742;SDS011;28397;44.552;-0.848;2023-12-20T14:09:57;6.68;;;2.05;;
42742;SDS011;28397;44.552;-0.848;2023-12-20T14:12:24;7.50;;;2.38;;
42742;SDS011;28397;44.552;-0.848;2023-12-20T14:14:50;5.15;;;2.25;;
42742;SDS011;28397;44.552;-0.848;2023-12-20T14:17:16;7.55;;;2.60;;
42742;SDS011;28397;44.552;-0.848;2023-12-20T14:19:43;8.48;;;3.58;;
42742;SDS011;28397;44.552;-0.848;2023-12-20T14:22:08;9.27;;;3.40;;
42742;SDS011;28397;44.552;-0.848;2023-12-20T14:24:35;8.55;;;3.47;;
42742;SDS011;28397;44.552;-0.848;2023-12-20T14:27:01;6.97;;;2.97;;
42742;SDS011;28397;44.552;-0.848;2023-12-20T14:29:27;7.90;;;3.45;;
42742;SDS011;28397;44.552;-0.848;2023-12-20T14:31:52;8.05;;;3.38;;